sensor_id;sensor_type;location;lat;lon;timestamp;P1;P2;P0
69746;PMS7003;57018;50.278;19.134;2023-02-15T00:00:32;37.00;34.00;23.50
69746;PMS7003;57018;50.278;19.134;2023-02-15T00:03:02;40.33;36.33;18.33
69746;PMS7003;57018;50.278;19.134;2023-02-15T00:05:32;36.00;31.50;20.00
69746;PMS7003;57018;50.278;19.134;2023-02-15T00:08:02;39.00;33.00;21.00
69746;PMS7003;57018;50.278;19.134;2023-02-15T00:10:32;37.50;35.00;20.50
69746;PMS7003;57018;50.278;19.134;2023-02-15T00:13:01;30.50;30.50;19.00
69746;PMS7003;57018;50.278;19.134;2023-02-15T00:15:31;36.00;30.00;19.00
69746;PMS7003;57018;50.278;19.134;2023-02-15T00:18:01;31.00;29.50;18.50
69746;PMS7003;57018;50.278;19.134;2023-02-15T00:20:31;35.50;31.00;21.50
69746;PMS7003;57018;50.278;19.134;2023-02-15T00:23:01;37.00;35.00;21.00
69746;PMS7003;57018;50.278;19.134;2023-02-15T00:25:31;41.00;35.00;22.00
69746;PMS7003;57018;50.278;19.134;2023-02-15T00:28:01;47.00;38.00;25.00
69746;PMS7003;57018;50.278;19.134;2023-02-15T00:30:32;39.00;35.00;22.00
69746;PMS7003;57018;50.278;19.134;2023-02-15T00:33:01;53.50;44.50;28.00
69746;PMS7003;57018;50.278;19.134;2023-02-15T00:35:31;52.00;42.00;27.00
69746;PMS7003;57018;50.278;19.134;2023-02-15T00:38:01;57.50;43.50;28.00
69746;PMS7003;57018;50.278;19.134;2023-02-15T00:40:31;39.50;34.00;25.00
69746;PMS7003;57018;50.278;19.134;2023-02-15T00:43:01;39.50;35.00;21.50
69746;PMS7003;57018;50.278;19.134;2023-02-15T00:45:31;41.00;38.00;21.00
69746;PMS7003;57018;50.278;19.134;2023-02-15T00:48:01;32.50;28.50;20.00
69746;PMS7003;57018;50.278;19.134;2023-02-15T00:50:31;39.00;31.00;19.33
69746;PMS7003;57018;50.278;19.134;2023-02-15T00:53:00;33.50;31.00;20.50
69746;PMS7003;57018;50.278;19.134;2023-02-15T00:55:30;39.00;29.00;17.00
69746;PMS7003;57018;50.278;19.134;2023-02-15T00:58:00;33.00;28.00;16.00
69746;PMS7003;57018;50.278;19.134;2023-02-15T01:00:30;45.50;38.50;23.50
69746;PMS7003;57018;50.278;19.134;2023-02-15T01:03:00;42.00;35.00;20.50
69746;PMS7003;57018;50.278;19.134;2023-02-15T01:05:30;34.00;27.00;15.00
69746;PMS7003;57018;50.278;19.134;2023-02-15T01:08:00;41.00;36.25;23.00
69746;PMS7003;57018;50.278;19.134;2023-02-15T01:10:30;33.00;29.50;20.00
69746;PMS7003;57018;50.278;19.134;2023-02-15T01:13:01;39.00;36.00;25.00
69746;PMS7003;57018;50.278;19.134;2023-02-15T01:15:33;39.00;32.00;21.00
69746;PMS7003;57018;50.278;19.134;2023-02-15T01:18:03;38.50;30.00;20.00
69746;PMS7003;57018;50.278;19.134;2023-02-15T01:20:34;42.00;36.00;24.00
69746;PMS7003;57018;50.278;19.134;2023-02-15T01:23:07;46.00;37.00;23.50
69746;PMS7003;57018;50.278;19.134;2023-02-15T01:25:38;37.50;33.50;21.50
69746;PMS7003;57018;50.278;19.134;2023-02-15T01:28:08;34.50;32.00;21.00
69746;PMS7003;57018;50.278;19.134;2023-02-15T01:30:37;42.67;36.33;21.00
69746;PMS7003;57018;50.278;19.134;2023-02-15T01:33:07;50.00;35.50;25.00
69746;PMS7003;57018;50.278;19.134;2023-02-15T01:35:44;39.00;38.00;23.00
69746;PMS7003;57018;50.278;19.134;2023-02-15T01:38:14;47.50;39.00;23.00
69746;PMS7003;57018;50.278;19.134;2023-02-15T01:40:44;47.00;38.50;21.00
69746;PMS7003;57018;50.278;19.134;2023-02-15T01:43:14;42.00;38.00;23.50
69746;PMS7003;57018;50.278;19.134;2023-02-15T01:45:44;38.00;31.50;21.50
69746;PMS7003;57018;50.278;19.134;2023-02-15T01:48:19;37.00;34.00;22.00
69746;PMS7003;57018;50.278;19.134;2023-02-15T01:50:54;46.00;41.00;23.00
69746;PMS7003;57018;50.278;19.134;2023-02-15T01:53:29;56.00;43.50;25.00
69746;PMS7003;57018;50.278;19.134;2023-02-15T01:56:04;50.67;41.00;25.33
69746;PMS7003;57018;50.278;19.134;2023-02-15T01:58:37;51.00;42.00;25.00
69746;PMS7003;57018;50.278;19.134;2023-02-15T02:01:08;52.50;41.50;26.00
69746;PMS7003;57018;50.278;19.134;2023-02-15T02:03:38;44.00;38.00;21.00
69746;PMS7003;57018;50.278;19.134;2023-02-15T02:06:14;50.00;39.00;25.50
69746;PMS7003;57018;50.278;19.134;2023-02-15T02:08:44;51.00;40.00;22.00
69746;PMS7003;57018;50.278;19.134;2023-02-15T02:11:15;50.00;41.00;26.00
69746;PMS7003;57018;50.278;19.134;2023-02-15T02:13:45;48.00;41.00;25.00
69746;PMS7003;57018;50.278;19.134;2023-02-15T02:16:16;53.00;43.00;28.00
69746;PMS7003;57018;50.278;19.134;2023-02-15T02:18:56;58.50;43.00;25.00
69746;PMS7003;57018;50.278;19.134;2023-02-15T02:21:44;51.00;41.00;25.00
69746;PMS7003;57018;50.278;19.134;2023-02-15T02:25:02;52.00;41.00;23.00
69746;PMS7003;57018;50.278;19.134;2023-02-15T02:27:52;45.00;40.00;26.00
69746;PMS7003;57018;50.278;19.134;2023-02-15T02:30:39;51.00;41.00;24.00
69746;PMS7003;57018;50.278;19.134;2023-02-15T02:33:33;44.00;38.00;25.00
69746;PMS7003;57018;50.278;19.134;2023-02-15T02:36:18;46.67;39.67;25.33
69746;PMS7003;57018;50.278;19.134;2023-02-15T02:41:54;57.50;43.00;27.00
69746;PMS7003;57018;50.278;19.134;2023-02-15T02:44:31;43.00;35.00;21.00
69746;PMS7003;57018;50.278;19.134;2023-02-15T02:47:11;45.00;38.00;23.50
69746;PMS7003;57018;50.278;19.134;2023-02-15T02:52:36;50.50;37.50;25.00
69746;PMS7003;57018;50.278;19.134;2023-02-15T02:55:10;50.00;41.00;25.00
69746;PMS7003;57018;50.278;19.134;2023-02-15T02:57:45;51.00;42.00;25.00
69746;PMS7003;57018;50.278;19.134;2023-02-15T03:00:19;51.00;41.50;25.50
69746;PMS7003;57018;50.278;19.134;2023-02-15T03:02:53;57.00;44.50;27.00
69746;PMS7003;57018;50.278;19.134;2023-02-15T03:05:31;58.00;45.00;28.00
69746;PMS7003;57018;50.278;19.134;2023-02-15T03:08:05;41.00;39.00;24.00
69746;PMS7003;57018;50.278;19.134;2023-02-15T03:10:37;50.50;44.50;27.00
69746;PMS7003;57018;50.278;19.134;2023-02-15T03:13:08;50.00;43.00;25.50
69746;PMS7003;57018;50.278;19.134;2023-02-15T03:15:39;47.00;40.00;28.00
69746;PMS7003;57018;50.278;19.134;2023-02-15T03:18:30;54.00;41.00;25.00
69746;PMS7003;57018;50.278;19.134;2023-02-15T03:21:04;52.50;44.00;28.00
69746;PMS7003;57018;50.278;19.134;2023-02-15T03:23:36;51.00;45.00;26.00
69746;PMS7003;57018;50.278;19.134;2023-02-15T03:26:07;47.00;42.50;27.50
69746;PMS7003;57018;50.278;19.134;2023-02-15T03:28:38;56.00;41.50;27.00
69746;PMS7003;57018;50.278;19.134;2023-02-15T03:31:11;58.00;45.50;28.50
69746;PMS7003;57018;50.278;19.134;2023-02-15T03:33:47;58.00;45.00;28.00
69746;PMS7003;57018;50.278;19.134;2023-02-15T03:36:20;52.00;44.50;26.00
69746;PMS7003;57018;50.278;19.134;2023-02-15T03:38:53;56.50;47.50;28.50
69746;PMS7003;57018;50.278;19.134;2023-02-15T03:41:29;59.00;46.00;29.00
69746;PMS7003;57018;50.278;19.134;2023-02-15T03:44:04;59.00;46.00;30.00
69746;PMS7003;57018;50.278;19.134;2023-02-15T03:49:14;50.00;40.00;26.00
69746;PMS7003;57018;50.278;19.134;2023-02-15T03:51:49;59.00;47.00;28.00
69746;PMS7003;57018;50.278;19.134;2023-02-15T03:54:23;33.00;29.00;17.00
69746;PMS7003;57018;50.278;19.134;2023-02-15T03:57:11;54.00;42.00;28.00
69746;PMS7003;57018;50.278;19.134;2023-02-15T04:00:02;49.00;43.00;29.00
69746;PMS7003;57018;50.278;19.134;2023-02-15T04:08:23;60.00;45.00;28.00
69746;PMS7003;57018;50.278;19.134;2023-02-15T04:11:13;62.00;46.00;29.00
69746;PMS7003;57018;50.278;19.134;2023-02-15T04:13:43;47.00;42.00;27.00
69746;PMS7003;57018;50.278;19.134;2023-02-15T04:16:12;48.00;40.00;24.00
69746;PMS7003;57018;50.278;19.134;2023-02-15T04:18:42;56.50;43.50;28.00
69746;PMS7003;57018;50.278;19.134;2023-02-15T04:21:30;61.00;50.00;31.00
69746;PMS7003;57018;50.278;19.134;2023-02-15T04:24:18;60.00;46.00;30.00
69746;PMS7003;57018;50.278;19.134;2023-02-15T04:27:05;49.50;44.00;27.50
69746;PMS7003;57018;50.278;19.134;2023-02-15T04:29:35;52.00;44.00;29.00
69746;PMS7003;57018;50.278;19.134;2023-02-15T04:32:05;59.00;46.50;28.00
69746;PMS7003;57018;50.278;19.134;2023-02-15T04:34:35;54.00;42.00;28.00
69746;PMS7003;57018;50.278;19.134;2023-02-15T04:37:05;50.00;45.00;27.00
69746;PMS7003;57018;50.278;19.134;2023-02-15T04:39:35;54.00;43.00;27.50
69746;PMS7003;57018;50.278;19.134;2023-02-15T04:42:05;49.00;42.50;29.00
69746;PMS7003;57018;50.278;19.134;2023-02-15T04:44:35;44.50;37.50;25.00
69746;PMS7003;57018;50.278;19.134;2023-02-15T04:47:05;60.00;44.00;29.33
69746;PMS7003;57018;50.278;19.134;2023-02-15T04:49:35;50.00;45.00;29.00
69746;PMS7003;57018;50.278;19.134;2023-02-15T04:52:05;51.00;42.00;26.00
69746;PMS7003;57018;50.278;19.134;2023-02-15T04:54:35;57.00;46.33;29.00
69746;PMS7003;57018;50.278;19.134;2023-02-15T04:57:05;53.00;42.50;26.50
69746;PMS7003;57018;50.278;19.134;2023-02-15T04:59:35;47.50;39.50;22.00
69746;PMS7003;57018;50.278;19.134;2023-02-15T05:02:05;56.00;43.00;26.00
69746;PMS7003;57018;50.278;19.134;2023-02-15T05:04:35;48.50;42.50;28.00
69746;PMS7003;57018;50.278;19.134;2023-02-15T05:07:05;49.50;43.50;26.00
69746;PMS7003;57018;50.278;19.134;2023-02-15T05:09:35;51.00;40.00;25.00
69746;PMS7003;57018;50.278;19.134;2023-02-15T05:12:05;52.50;40.00;26.00
69746;PMS7003;57018;50.278;19.134;2023-02-15T05:14:35;53.00;44.00;26.00
69746;PMS7003;57018;50.278;19.134;2023-02-15T05:17:05;50.50;43.00;30.00
69746;PMS7003;57018;50.278;19.134;2023-02-15T05:19:35;51.00;42.00;25.50
69746;PMS7003;57018;50.278;19.134;2023-02-15T05:22:05;48.00;40.00;24.00
69746;PMS7003;57018;50.278;19.134;2023-02-15T05:24:35;52.00;42.00;25.50
69746;PMS7003;57018;50.278;19.134;2023-02-15T05:27:22;48.00;40.00;25.00
69746;PMS7003;57018;50.278;19.134;2023-02-15T05:30:12;50.00;39.00;25.00
69746;PMS7003;57018;50.278;19.134;2023-02-15T05:32:42;59.00;46.00;26.00
69746;PMS7003;57018;50.278;19.134;2023-02-15T05:35:12;47.00;40.00;25.50
69746;PMS7003;57018;50.278;19.134;2023-02-15T05:37:43;44.50;36.50;22.50
69746;PMS7003;57018;50.278;19.134;2023-02-15T05:40:13;53.50;43.00;27.50
69746;PMS7003;57018;50.278;19.134;2023-02-15T05:42:43;49.00;39.50;25.00
69746;PMS7003;57018;50.278;19.134;2023-02-15T05:45:13;49.00;42.00;25.00
69746;PMS7003;57018;50.278;19.134;2023-02-15T05:47:43;50.00;44.50;28.00
69746;PMS7003;57018;50.278;19.134;2023-02-15T05:50:14;45.50;39.50;25.00
69746;PMS7003;57018;50.278;19.134;2023-02-15T05:52:44;52.00;42.50;26.00
69746;PMS7003;57018;50.278;19.134;2023-02-15T05:55:14;42.50;37.50;22.50
69746;PMS7003;57018;50.278;19.134;2023-02-15T05:57:45;57.00;45.00;27.00
69746;PMS7003;57018;50.278;19.134;2023-02-15T06:00:15;48.50;41.00;26.50
69746;PMS7003;57018;50.278;19.134;2023-02-15T06:02:46;45.50;40.50;26.50
69746;PMS7003;57018;50.278;19.134;2023-02-15T06:05:16;58.00;43.00;26.50
69746;PMS7003;57018;50.278;19.134;2023-02-15T06:07:45;52.00;43.00;27.50
69746;PMS7003;57018;50.278;19.134;2023-02-15T06:10:15;56.00;41.00;26.00
69746;PMS7003;57018;50.278;19.134;2023-02-15T06:12:46;52.00;43.50;29.00
69746;PMS7003;57018;50.278;19.134;2023-02-15T06:15:15;38.50;36.50;22.00
69746;PMS7003;57018;50.278;19.134;2023-02-15T06:17:45;43.00;38.00;23.00
69746;PMS7003;57018;50.278;19.134;2023-02-15T06:20:15;50.50;42.50;26.00
69746;PMS7003;57018;50.278;19.134;2023-02-15T06:22:45;50.00;42.00;28.00
69746;PMS7003;57018;50.278;19.134;2023-02-15T06:25:15;47.50;40.50;26.00
69746;PMS7003;57018;50.278;19.134;2023-02-15T06:30:14;58.50;43.50;27.50
69746;PMS7003;57018;50.278;19.134;2023-02-15T06:32:44;48.00;43.00;29.00
69746;PMS7003;57018;50.278;19.134;2023-02-15T06:35:14;45.00;39.00;26.00
69746;PMS7003;57018;50.278;19.134;2023-02-15T06:37:46;48.00;41.00;26.00
69746;PMS7003;57018;50.278;19.134;2023-02-15T06:40:16;50.00;42.00;27.00
69746;PMS7003;57018;50.278;19.134;2023-02-15T06:42:46;54.50;40.50;26.00
69746;PMS7003;57018;50.278;19.134;2023-02-15T06:45:16;57.50;47.00;29.00
69746;PMS7003;57018;50.278;19.134;2023-02-15T06:47:46;56.00;43.00;29.00
69746;PMS7003;57018;50.278;19.134;2023-02-15T06:50:16;53.00;43.00;29.00
69746;PMS7003;57018;50.278;19.134;2023-02-15T06:52:46;61.00;50.00;31.00
69746;PMS7003;57018;50.278;19.134;2023-02-15T06:55:17;56.50;42.50;27.00
69746;PMS7003;57018;50.278;19.134;2023-02-15T06:57:46;52.00;39.00;26.00
69746;PMS7003;57018;50.278;19.134;2023-02-15T07:00:17;54.00;45.00;30.00
69746;PMS7003;57018;50.278;19.134;2023-02-15T07:02:54;44.00;41.00;22.00
69746;PMS7003;57018;50.278;19.134;2023-02-15T07:05:24;52.00;44.50;27.50
69746;PMS7003;57018;50.278;19.134;2023-02-15T07:07:57;57.00;42.00;25.00
69746;PMS7003;57018;50.278;19.134;2023-02-15T07:10:28;56.00;43.00;27.00
69746;PMS7003;57018;50.278;19.134;2023-02-15T07:12:58;60.00;46.33;29.00
69746;PMS7003;57018;50.278;19.134;2023-02-15T07:15:28;60.50;47.50;27.50
69746;PMS7003;57018;50.278;19.134;2023-02-15T07:17:58;57.00;46.00;29.00
69746;PMS7003;57018;50.278;19.134;2023-02-15T07:20:28;59.00;47.00;30.00
69746;PMS7003;57018;50.278;19.134;2023-02-15T07:23:00;60.00;45.50;28.00
69746;PMS7003;57018;50.278;19.134;2023-02-15T07:25:30;60.00;46.00;29.00
